sensor_id;sensor_type;location;lat;lon;timestamp;P1;durP1;ratioP1;P2;durP2;ratioP2
15049;SDS011;7622;42.724;23.250;2023-03-23T00:02:13;28.13;;;17.97;;
15049;SDS011;7622;42.724;23.250;2023-03-23T00:04:41;26.50;;;17.57;;
15049;SDS011;7622;42.724;23.250;2023-03-23T00:07:08;23.13;;;17.77;;
15049;SDS011;7622;42.724;23.250;2023-03-23T00:09:39;26.70;;;17.90;;
15049;SDS011;7622;42.724;23.250;2023-03-23T00:12:06;25.53;;;17.17;;
15049;SDS011;7622;42.724;23.250;2023-03-23T00:14:33;28.23;;;17.60;;
15049;SDS011;7622;42.724;23.250;2023-03-23T00:17:06;25.37;;;17.60;;
15049;SDS011;7622;42.724;23.250;2023-03-23T00:19:36;27.47;;;18.43;;
15049;SDS011;7622;42.724;23.250;2023-03-23T00:22:17;26.57;;;17.23;;
15049;SDS011;7622;42.724;23.250;2023-03-23T00:24:47;26.17;;;18.47;;
15049;SDS011;7622;42.724;23.250;2023-03-23T00:27:15;27.13;;;18.77;;
15049;SDS011;7622;42.724;23.250;2023-03-23T00:29:42;25.33;;;17.90;;
15049;SDS011;7622;42.724;23.250;2023-03-23T00:32:10;31.27;;;19.03;;
15049;SDS011;7622;42.724;23.250;2023-03-23T00:34:39;25.60;;;17.03;;
15049;SDS011;7622;42.724;23.250;2023-03-23T00:37:08;28.33;;;18.33;;
15049;SDS011;7622;42.724;23.250;2023-03-23T00:39:37;27.03;;;17.10;;
15049;SDS011;7622;42.724;23.250;2023-03-23T00:42:11;25.33;;;17.73;;
15049;SDS011;7622;42.724;23.250;2023-03-23T00:44:38;27.00;;;17.57;;
15049;SDS011;7622;42.724;23.250;2023-03-23T00:47:06;25.80;;;16.73;;
15049;SDS011;7622;42.724;23.250;2023-03-23T00:49:34;25.10;;;17.00;;
15049;SDS011;7622;42.724;23.250;2023-03-23T00:52:02;23.93;;;15.40;;
15049;SDS011;7622;42.724;23.250;2023-03-23T00:54:29;24.83;;;16.17;;
15049;SDS011;7622;42.724;23.250;2023-03-23T00:56:56;24.00;;;16.50;;
15049;SDS011;7622;42.724;23.250;2023-03-23T00:59:24;27.33;;;18.30;;
15049;SDS011;7622;42.724;23.250;2023-03-23T01:01:51;41.03;;;19.90;;
15049;SDS011;7622;42.724;23.250;2023-03-23T01:04:18;34.37;;;22.10;;
15049;SDS011;7622;42.724;23.250;2023-03-23T01:06:46;44.43;;;27.10;;
15049;SDS011;7622;42.724;23.250;2023-03-23T01:09:16;60.30;;;33.10;;
15049;SDS011;7622;42.724;23.250;2023-03-23T01:11:46;43.80;;;26.37;;
15049;SDS011;7622;42.724;23.250;2023-03-23T01:14:14;32.67;;;23.43;;
15049;SDS011;7622;42.724;23.250;2023-03-23T01:16:44;37.97;;;23.93;;
15049;SDS011;7622;42.724;23.250;2023-03-23T01:19:11;41.70;;;23.67;;
15049;SDS011;7622;42.724;23.250;2023-03-23T01:21:37;39.83;;;22.80;;
15049;SDS011;7622;42.724;23.250;2023-03-23T01:24:05;37.83;;;23.20;;
15049;SDS011;7622;42.724;23.250;2023-03-23T01:26:32;34.40;;;21.57;;
15049;SDS011;7622;42.724;23.250;2023-03-23T01:28:59;29.70;;;20.50;;
15049;SDS011;7622;42.724;23.250;2023-03-23T01:31:26;38.53;;;22.70;;
15049;SDS011;7622;42.724;23.250;2023-03-23T01:33:54;38.73;;;22.57;;
15049;SDS011;7622;42.724;23.250;2023-03-23T01:36:22;36.83;;;21.80;;
15049;SDS011;7622;42.724;23.250;2023-03-23T01:38:51;41.80;;;23.20;;
15049;SDS011;7622;42.724;23.250;2023-03-23T01:41:19;39.70;;;23.03;;
15049;SDS011;7622;42.724;23.250;2023-03-23T01:43:53;47.63;;;26.57;;
15049;SDS011;7622;42.724;23.250;2023-03-23T01:46:21;50.43;;;25.73;;
15049;SDS011;7622;42.724;23.250;2023-03-23T01:48:48;48.77;;;25.33;;
15049;SDS011;7622;42.724;23.250;2023-03-23T01:51:18;49.80;;;26.70;;
15049;SDS011;7622;42.724;23.250;2023-03-23T01:53:47;42.10;;;24.27;;
15049;SDS011;7622;42.724;23.250;2023-03-23T01:56:18;46.17;;;24.53;;
15049;SDS011;7622;42.724;23.250;2023-03-23T01:58:50;41.97;;;23.83;;
15049;SDS011;7622;42.724;23.250;2023-03-23T02:01:17;41.50;;;23.67;;
15049;SDS011;7622;42.724;23.250;2023-03-23T02:03:46;40.83;;;23.83;;
15049;SDS011;7622;42.724;23.250;2023-03-23T02:06:14;42.73;;;23.23;;
15049;SDS011;7622;42.724;23.250;2023-03-23T02:08:42;42.40;;;24.80;;
15049;SDS011;7622;42.724;23.250;2023-03-23T02:11:13;41.73;;;24.33;;
15049;SDS011;7622;42.724;23.250;2023-03-23T02:13:41;36.97;;;23.20;;
15049;SDS011;7622;42.724;23.250;2023-03-23T02:16:09;36.03;;;22.93;;
15049;SDS011;7622;42.724;23.250;2023-03-23T02:18:47;46.10;;;25.00;;
15049;SDS011;7622;42.724;23.250;2023-03-23T02:21:27;39.03;;;24.10;;
15049;SDS011;7622;42.724;23.250;2023-03-23T02:30:50;37.07;;;22.23;;
15049;SDS011;7622;42.724;23.250;2023-03-23T02:33:38;36.90;;;21.63;;
15049;SDS011;7622;42.724;23.250;2023-03-23T02:36:11;41.97;;;22.57;;
15049;SDS011;7622;42.724;23.250;2023-03-23T02:38:44;36.67;;;22.53;;
15049;SDS011;7622;42.724;23.250;2023-03-23T02:41:19;35.97;;;21.17;;
15049;SDS011;7622;42.724;23.250;2023-03-23T02:43:50;32.43;;;19.00;;
15049;SDS011;7622;42.724;23.250;2023-03-23T02:46:18;25.47;;;17.87;;
15049;SDS011;7622;42.724;23.250;2023-03-23T02:48:49;28.00;;;18.70;;
15049;SDS011;7622;42.724;23.250;2023-03-23T02:51:20;30.63;;;17.57;;
15049;SDS011;7622;42.724;23.250;2023-03-23T02:53:48;28.80;;;18.17;;
15049;SDS011;7622;42.724;23.250;2023-03-23T02:56:18;24.90;;;17.20;;
15049;SDS011;7622;42.724;23.250;2023-03-23T02:58:49;25.20;;;17.53;;
15049;SDS011;7622;42.724;23.250;2023-03-23T03:04:14;25.03;;;16.80;;
15049;SDS011;7622;42.724;23.250;2023-03-23T03:06:46;23.53;;;17.37;;
15049;SDS011;7622;42.724;23.250;2023-03-23T03:09:22;27.23;;;17.40;;
15049;SDS011;7622;42.724;23.250;2023-03-23T03:11:58;28.33;;;17.00;;
15049;SDS011;7622;42.724;23.250;2023-03-23T03:14:31;21.83;;;15.60;;
15049;SDS011;7622;42.724;23.250;2023-03-23T03:17:04;23.00;;;16.20;;
15049;SDS011;7622;42.724;23.250;2023-03-23T03:19:40;25.87;;;17.40;;
15049;SDS011;7622;42.724;23.250;2023-03-23T03:22:09;23.53;;;17.30;;
15049;SDS011;7622;42.724;23.250;2023-03-23T03:24:36;27.37;;;16.87;;
15049;SDS011;7622;42.724;23.250;2023-03-23T03:27:05;25.13;;;17.03;;
15049;SDS011;7622;42.724;23.250;2023-03-23T03:29:40;23.83;;;16.73;;
15049;SDS011;7622;42.724;23.250;2023-03-23T03:32:08;27.83;;;17.53;;
15049;SDS011;7622;42.724;23.250;2023-03-23T03:34:40;25.60;;;16.33;;
15049;SDS011;7622;42.724;23.250;2023-03-23T03:37:06;27.10;;;16.70;;
15049;SDS011;7622;42.724;23.250;2023-03-23T03:39:34;27.07;;;17.33;;
15049;SDS011;7622;42.724;23.250;2023-03-23T03:42:01;25.57;;;17.20;;
15049;SDS011;7622;42.724;23.250;2023-03-23T03:44:28;28.37;;;16.33;;
15049;SDS011;7622;42.724;23.250;2023-03-23T03:46:55;33.00;;;20.53;;
15049;SDS011;7622;42.724;23.250;2023-03-23T03:49:21;31.13;;;19.17;;
15049;SDS011;7622;42.724;23.250;2023-03-23T03:51:50;27.30;;;17.37;;
15049;SDS011;7622;42.724;23.250;2023-03-23T03:54:16;27.50;;;17.93;;
15049;SDS011;7622;42.724;23.250;2023-03-23T03:56:43;30.30;;;19.30;;
15049;SDS011;7622;42.724;23.250;2023-03-23T03:59:11;34.83;;;21.37;;
15049;SDS011;7622;42.724;23.250;2023-03-23T04:01:38;30.80;;;20.00;;
15049;SDS011;7622;42.724;23.250;2023-03-23T04:04:05;31.47;;;19.40;;
15049;SDS011;7622;42.724;23.250;2023-03-23T04:06:32;35.80;;;21.13;;
15049;SDS011;7622;42.724;23.250;2023-03-23T04:09:04;31.50;;;20.00;;
15049;SDS011;7622;42.724;23.250;2023-03-23T04:11:32;31.50;;;19.03;;
15049;SDS011;7622;42.724;23.250;2023-03-23T04:13:59;31.03;;;19.57;;
15049;SDS011;7622;42.724;23.250;2023-03-23T04:16:26;25.73;;;18.53;;
15049;SDS011;7622;42.724;23.250;2023-03-23T04:18:54;29.30;;;18.50;;
15049;SDS011;7622;42.724;23.250;2023-03-23T04:21:22;29.53;;;18.70;;
15049;SDS011;7622;42.724;23.250;2023-03-23T04:23:53;29.27;;;18.03;;
15049;SDS011;7622;42.724;23.250;2023-03-23T04:26:22;27.93;;;18.20;;
15049;SDS011;7622;42.724;23.250;2023-03-23T04:28:49;30.43;;;18.43;;
15049;SDS011;7622;42.724;23.250;2023-03-23T04:31:17;28.70;;;17.80;;
15049;SDS011;7622;42.724;23.250;2023-03-23T04:33:43;28.37;;;17.83;;
15049;SDS011;7622;42.724;23.250;2023-03-23T04:36:11;32.03;;;19.20;;
15049;SDS011;7622;42.724;23.250;2023-03-23T04:38:41;25.57;;;17.20;;
15049;SDS011;7622;42.724;23.250;2023-03-23T04:41:08;26.77;;;18.13;;
15049;SDS011;7622;42.724;23.250;2023-03-23T04:43:36;27.57;;;17.67;;
15049;SDS011;7622;42.724;23.250;2023-03-23T04:46:07;29.43;;;18.50;;
15049;SDS011;7622;42.724;23.250;2023-03-23T04:48:34;36.27;;;24.63;;
15049;SDS011;7622;42.724;23.250;2023-03-23T04:51:04;64.90;;;42.20;;
15049;SDS011;7622;42.724;23.250;2023-03-23T04:53:31;61.63;;;41.07;;
15049;SDS011;7622;42.724;23.250;2023-03-23T04:55:59;63.53;;;40.67;;
15049;SDS011;7622;42.724;23.250;2023-03-23T04:58:27;47.87;;;30.50;;
15049;SDS011;7622;42.724;23.250;2023-03-23T05:00:56;39.57;;;25.83;;
15049;SDS011;7622;42.724;23.250;2023-03-23T05:03:23;28.03;;;19.83;;
15049;SDS011;7622;42.724;23.250;2023-03-23T05:05:50;25.93;;;17.63;;
15049;SDS011;7622;42.724;23.250;2023-03-23T05:08:18;27.37;;;16.40;;
15049;SDS011;7622;42.724;23.250;2023-03-23T05:10:51;28.10;;;16.70;;
15049;SDS011;7622;42.724;23.250;2023-03-23T05:13:19;23.87;;;16.00;;
15049;SDS011;7622;42.724;23.250;2023-03-23T05:15:46;27.77;;;15.77;;
15049;SDS011;7622;42.724;23.250;2023-03-23T05:18:14;26.57;;;16.13;;
15049;SDS011;7622;42.724;23.250;2023-03-23T05:20:41;26.57;;;16.47;;
15049;SDS011;7622;42.724;23.250;2023-03-23T05:23:11;24.13;;;16.70;;
15049;SDS011;7622;42.724;23.250;2023-03-23T05:25:39;31.53;;;17.30;;
15049;SDS011;7622;42.724;23.250;2023-03-23T05:28:06;27.37;;;18.17;;
15049;SDS011;7622;42.724;23.250;2023-03-23T05:30:33;32.87;;;18.90;;
15049;SDS011;7622;42.724;23.250;2023-03-23T05:33:01;31.67;;;18.80;;
15049;SDS011;7622;42.724;23.250;2023-03-23T05:35:32;29.37;;;18.73;;
15049;SDS011;7622;42.724;23.250;2023-03-23T05:37:58;34.30;;;19.87;;
15049;SDS011;7622;42.724;23.250;2023-03-23T05:40:27;30.37;;;19.03;;
15049;SDS011;7622;42.724;23.250;2023-03-23T05:42:53;38.53;;;24.60;;
15049;SDS011;7622;42.724;23.250;2023-03-23T05:45:22;35.47;;;22.03;;
15049;SDS011;7622;42.724;23.250;2023-03-23T05:47:49;31.80;;;18.47;;
15049;SDS011;7622;42.724;23.250;2023-03-23T05:50:16;33.70;;;20.63;;
15049;SDS011;7622;42.724;23.250;2023-03-23T05:52:45;32.47;;;19.70;;
15049;SDS011;7622;42.724;23.250;2023-03-23T05:55:11;30.43;;;18.57;;
15049;SDS011;7622;42.724;23.250;2023-03-23T05:57:39;36.90;;;20.80;;
15049;SDS011;7622;42.724;23.250;2023-03-23T06:00:06;45.53;;;22.30;;
15049;SDS011;7622;42.724;23.250;2023-03-23T06:02:44;47.70;;;26.60;;
15049;SDS011;7622;42.724;23.250;2023-03-23T06:05:13;43.23;;;27.20;;
15049;SDS011;7622;42.724;23.250;2023-03-23T06:07:41;39.27;;;23.97;;
15049;SDS011;7622;42.724;23.250;2023-03-23T06:10:09;45.40;;;24.13;;
15049;SDS011;7622;42.724;23.250;2023-03-23T06:12:36;33.43;;;21.70;;
15049;SDS011;7622;42.724;23.250;2023-03-23T06:15:04;38.63;;;22.50;;
15049;SDS011;7622;42.724;23.250;2023-03-23T06:17:33;35.73;;;23.60;;
15049;SDS011;7622;42.724;23.250;2023-03-23T06:20:01;36.73;;;24.10;;
15049;SDS011;7622;42.724;23.250;2023-03-23T06:22:29;37.23;;;23.27;;
15049;SDS011;7622;42.724;23.250;2023-03-23T06:24:56;38.83;;;24.13;;
15049;SDS011;7622;42.724;23.250;2023-03-23T06:27:24;33.23;;;21.87;;
15049;SDS011;7622;42.724;23.250;2023-03-23T06:29:51;34.50;;;21.07;;
15049;SDS011;7622;42.724;23.250;2023-03-23T06:32:17;28.97;;;18.70;;
15049;SDS011;7622;42.724;23.250;2023-03-23T06:34:45;29.13;;;19.87;;
15049;SDS011;7622;42.724;23.250;2023-03-23T06:37:12;28.70;;;20.07;;
15049;SDS011;7622;42.724;23.250;2023-03-23T06:39:41;26.10;;;18.27;;
15049;SDS011;7622;42.724;23.250;2023-03-23T06:42:09;25.57;;;17.43;;
15049;SDS011;7622;42.724;23.250;2023-03-23T06:44:37;24.07;;;17.70;;
15049;SDS011;7622;42.724;23.250;2023-03-23T06:47:04;27.13;;;17.90;;
15049;SDS011;7622;42.724;23.250;2023-03-23T06:49:32;25.03;;;17.93;;
15049;SDS011;7622;42.724;23.250;2023-03-23T06:51:59;26.57;;;18.57;;
15049;SDS011;7622;42.724;23.250;2023-03-23T06:54:27;28.83;;;17.93;;
15049;SDS011;7622;42.724;23.250;2023-03-23T06:56:54;25.20;;;17.07;;
15049;SDS011;7622;42.724;23.250;2023-03-23T06:59:20;25.77;;;17.87;;
15049;SDS011;7622;42.724;23.250;2023-03-23T07:01:49;22.67;;;16.53;;
15049;SDS011;7622;42.724;23.250;2023-03-23T07:04:15;25.13;;;18.00;;
15049;SDS011;7622;42.724;23.250;2023-03-23T07:06:42;24.50;;;18.67;;
15049;SDS011;7622;42.724;23.250;2023-03-23T07:09:09;25.43;;;18.87;;
15049;SDS011;7622;42.724;23.250;2023-03-23T07:11:36;24.77;;;18.40;;
15049;SDS011;7622;42.724;23.250;2023-03-23T07:14:03;24.23;;;17.27;;
15049;SDS011;7622;42.724;23.250;2023-03-23T07:16:30;26.20;;;15.77;;
15049;SDS011;7622;42.724;23.250;2023-03-23T07:18:58;18.17;;;16.27;;
15049;SDS011;7622;42.724;23.250;2023-03-23T07:21:25;21.13;;;15.23;;
15049;SDS011;7622;42.724;23.250;2023-03-23T07:23:52;20.10;;;15.00;;
15049;SDS011;7622;42.724;23.250;2023-03-23T07:26:19;23.33;;;15.23;;
15049;SDS011;7622;42.724;23.250;2023-03-23T07:28:46;20.00;;;15.57;;
15049;SDS011;7622;42.724;23.250;2023-03-23T07:31:13;19.73;;;15.43;;
15049;SDS011;7622;42.724;23.250;2023-03-23T07:33:40;22.67;;;16.13;;
15049;SDS011;7622;42.724;23.250;2023-03-23T07:36:08;20.77;;;16.17;;
15049;SDS011;7622;42.724;23.250;2023-03-23T07:38:36;20.10;;;16.00;;
15049;SDS011;7622;42.724;23.250;2023-03-23T07:41:03;19.47;;;15.60;;
15049;SDS011;7622;42.724;23.250;2023-03-23T07:43:31;20.03;;;15.50;;
15049;SDS011;7622;42.724;23.250;2023-03-23T07:45:58;19.87;;;15.33;;
15049;SDS011;7622;42.724;23.250;2023-03-23T07:48:25;22.00;;;15.03;;
15049;SDS011;7622;42.724;23.250;2023-03-23T07:50:51;21.83;;;15.63;;
15049;SDS011;7622;42.724;23.250;2023-03-23T07:53:20;22.50;;;16.57;;
15049;SDS011;7622;42.724;23.250;2023-03-23T07:55:49;21.33;;;15.07;;
15049;SDS011;7622;42.724;23.250;2023-03-23T07:58:15;20.47;;;15.97;;
15049;SDS011;7622;42.724;23.250;2023-03-23T08:00:44;23.37;;;15.97;;
15049;SDS011;7622;42.724;23.250;2023-03-23T08:03:13;18.67;;;14.87;;
15049;SDS011;7622;42.724;23.250;2023-03-23T08:05:40;22.10;;;15.30;;
15049;SDS011;7622;42.724;23.250;2023-03-23T08:08:07;18.57;;;15.13;;
15049;SDS011;7622;42.724;23.250;2023-03-23T08:10:36;19.10;;;15.07;;
15049;SDS011;7622;42.724;23.250;2023-03-23T08:13:03;19.93;;;15.17;;
15049;SDS011;7622;42.724;23.250;2023-03-23T08:15:31;21.00;;;16.97;;
15049;SDS011;7622;42.724;23.250;2023-03-23T08:18:03;22.17;;;15.53;;
15049;SDS011;7622;42.724;23.250;2023-03-23T08:20:30;20.33;;;15.77;;
15049;SDS011;7622;42.724;23.250;2023-03-23T08:22:58;21.23;;;16.70;;
15049;SDS011;7622;42.724;23.250;2023-03-23T08:25:25;21.73;;;15.10;;
15049;SDS011;7622;42.724;23.250;2023-03-23T08:27:53;27.27;;;18.40;;
15049;SDS011;7622;42.724;23.250;2023-03-23T08:30:21;23.47;;;17.70;;
15049;SDS011;7622;42.724;23.250;2023-03-23T08:32:49;21.03;;;16.83;;
15049;SDS011;7622;42.724;23.250;2023-03-23T08:35:17;24.83;;;18.23;;
15049;SDS011;7622;42.724;23.250;2023-03-23T08:37:45;19.63;;;16.83;;
15049;SDS011;7622;42.724;23.250;2023-03-23T08:40:16;18.97;;;15.73;;
15049;SDS011;7622;42.724;23.250;2023-03-23T08:42:44;15.43;;;12.87;;
15049;SDS011;7622;42.724;23.250;2023-03-23T08:45:14;18.63;;;14.60;;
15049;SDS011;7622;42.724;23.250;2023-03-23T08:47:43;19.37;;;15.90;;
15049;SDS011;7622;42.724;23.250;2023-03-23T08:50:13;22.20;;;15.53;;
15049;SDS011;7622;42.724;23.250;2023-03-23T08:52:42;21.23;;;14.80;;
15049;SDS011;7622;42.724;23.250;2023-03-23T08:55:09;15.03;;;12.07;;
15049;SDS011;7622;42.724;23.250;2023-03-23T08:57:36;9.93;;;8.90;;
15049;SDS011;7622;42.724;23.250;2023-03-23T09:00:04;9.63;;;8.63;;
15049;SDS011;7622;42.724;23.250;2023-03-23T09:02:41;7.93;;;7.27;;
15049;SDS011;7622;42.724;23.250;2023-03-23T09:05:08;7.27;;;6.67;;
15049;SDS011;7622;42.724;23.250;2023-03-23T09:07:36;7.60;;;6.90;;
15049;SDS011;7622;42.724;23.250;2023-03-23T09:10:04;7.80;;;7.10;;
15049;SDS011;7622;42.724;23.250;2023-03-23T09:12:33;11.40;;;8.70;;
15049;SDS011;7622;42.724;23.250;2023-03-23T09:15:00;9.53;;;8.47;;
15049;SDS011;7622;42.724;23.250;2023-03-23T09:17:30;11.97;;;8.70;;
15049;SDS011;7622;42.724;23.250;2023-03-23T09:19:59;9.80;;;8.53;;
15049;SDS011;7622;42.724;23.250;2023-03-23T09:22:26;12.53;;;8.73;;
15049;SDS011;7622;42.724;23.250;2023-03-23T09:24:52;9.50;;;8.53;;
15049;SDS011;7622;42.724;23.250;2023-03-23T09:27:19;10.63;;;9.20;;
15049;SDS011;7622;42.724;23.250;2023-03-23T09:29:46;14.13;;;9.53;;
15049;SDS011;7622;42.724;23.250;2023-03-23T09:32:14;10.03;;;8.70;;
15049;SDS011;7622;42.724;23.250;2023-03-23T09:34:41;12.10;;;9.47;;
15049;SDS011;7622;42.724;23.250;2023-03-23T09:37:09;10.30;;;9.30;;
15049;SDS011;7622;42.724;23.250;2023-03-23T09:39:38;9.00;;;8.10;;
15049;SDS011;7622;42.724;23.250;2023-03-23T09:42:11;9.70;;;8.70;;
15049;SDS011;7622;42.724;23.250;2023-03-23T09:44:50;8.90;;;8.07;;
15049;SDS011;7622;42.724;23.250;2023-03-23T09:47:41;8.27;;;7.47;;
15049;SDS011;7622;42.724;23.250;2023-03-23T09:50:16;9.60;;;8.67;;
15049;SDS011;7622;42.724;23.250;2023-03-23T09:52:47;8.40;;;7.70;;
15049;SDS011;7622;42.724;23.250;2023-03-23T09:55:19;9.67;;;7.40;;
15049;SDS011;7622;42.724;23.250;2023-03-23T09:57:49;8.77;;;7.90;;
15049;SDS011;7622;42.724;23.250;2023-03-23T10:00:23;7.93;;;7.20;;
15049;SDS011;7622;42.724;23.250;2023-03-23T10:02:54;8.50;;;7.53;;
15049;SDS011;7622;42.724;23.250;2023-03-23T10:05:29;11.00;;;8.03;;
15049;SDS011;7622;42.724;23.250;2023-03-23T10:08:00;8.63;;;7.50;;
15049;SDS011;7622;42.724;23.250;2023-03-23T10:10:31;8.97;;;8.13;;
15049;SDS011;7622;42.724;23.250;2023-03-23T10:13:09;8.63;;;7.80;;
15049;SDS011;7622;42.724;23.250;2023-03-23T10:15:45;8.30;;;7.50;;
15049;SDS011;7622;42.724;23.250;2023-03-23T10:18:15;8.53;;;7.73;;
15049;SDS011;7622;42.724;23.250;2023-03-23T10:20:46;7.90;;;7.20;;
15049;SDS011;7622;42.724;23.250;2023-03-23T10:23:32;7.77;;;6.97;;
15049;SDS011;7622;42.724;23.250;2023-03-23T10:26:08;8.00;;;6.83;;
15049;SDS011;7622;42.724;23.250;2023-03-23T10:28:43;7.43;;;6.73;;
15049;SDS011;7622;42.724;23.250;2023-03-23T10:31:12;11.23;;;6.73;;
15049;SDS011;7622;42.724;23.250;2023-03-23T10:33:44;6.87;;;6.33;;
15049;SDS011;7622;42.724;23.250;2023-03-23T10:36:16;7.00;;;6.50;;
15049;SDS011;7622;42.724;23.250;2023-03-23T10:38:48;7.27;;;6.67;;
15049;SDS011;7622;42.724;23.250;2023-03-23T10:41:22;7.47;;;6.77;;
15049;SDS011;7622;42.724;23.250;2023-03-23T10:43:49;7.37;;;6.67;;
15049;SDS011;7622;42.724;23.250;2023-03-23T10:46:21;7.80;;;6.50;;
15049;SDS011;7622;42.724;23.250;2023-03-23T10:48:53;7.00;;;6.10;;
15049;SDS011;7622;42.724;23.250;2023-03-23T10:51:32;6.63;;;6.13;;
15049;SDS011;7622;42.724;23.250;2023-03-23T10:54:04;7.57;;;6.93;;
15049;SDS011;7622;42.724;23.250;2023-03-23T10:56:35;6.73;;;6.20;;
15049;SDS011;7622;42.724;23.250;2023-03-23T10:59:13;7.13;;;6.53;;
15049;SDS011;7622;42.724;23.250;2023-03-23T11:01:42;6.97;;;6.27;;
15049;SDS011;7622;42.724;23.250;2023-03-23T11:04:12;7.83;;;6.67;;
15049;SDS011;7622;42.724;23.250;2023-03-23T11:06:43;7.10;;;6.53;;
15049;SDS011;7622;42.724;23.250;2023-03-23T11:09:14;7.30;;;6.70;;
15049;SDS011;7622;42.724;23.250;2023-03-23T11:11:43;6.60;;;6.07;;
15049;SDS011;7622;42.724;23.250;2023-03-23T11:14:16;7.63;;;6.20;;
15049;SDS011;7622;42.724;23.250;2023-03-23T11:16:45;8.57;;;6.63;;
15049;SDS011;7622;42.724;23.250;2023-03-23T11:19:21;8.27;;;7.47;;
15049;SDS011;7622;42.724;23.250;2023-03-23T11:21:50;7.93;;;6.53;;
15049;SDS011;7622;42.724;23.250;2023-03-23T11:24:22;7.40;;;6.70;;
15049;SDS011;7622;42.724;23.250;2023-03-23T11:26:49;7.80;;;7.00;;
15049;SDS011;7622;42.724;23.250;2023-03-23T11:29:18;6.37;;;5.87;;
15049;SDS011;7622;42.724;23.250;2023-03-23T11:31:49;8.47;;;7.03;;
15049;SDS011;7622;42.724;23.250;2023-03-23T11:34:18;12.20;;;7.03;;
15049;SDS011;7622;42.724;23.250;2023-03-23T11:36:47;7.23;;;6.67;;
15049;SDS011;7622;42.724;23.250;2023-03-23T11:39:20;8.00;;;7.30;;
15049;SDS011;7622;42.724;23.250;2023-03-23T11:41:51;7.70;;;6.93;;
15049;SDS011;7622;42.724;23.250;2023-03-23T11:44:20;7.30;;;6.60;;
15049;SDS011;7622;42.724;23.250;2023-03-23T11:46:50;6.53;;;5.77;;
15049;SDS011;7622;42.724;23.250;2023-03-23T11:49:28;7.07;;;6.57;;
15049;SDS011;7622;42.724;23.250;2023-03-23T11:52:03;8.30;;;7.50;;
15049;SDS011;7622;42.724;23.250;2023-03-23T11:54:37;7.17;;;6.47;;
15049;SDS011;7622;42.724;23.250;2023-03-23T11:57:10;8.63;;;6.57;;
15049;SDS011;7622;42.724;23.250;2023-03-23T11:59:39;11.17;;;7.07;;
15049;SDS011;7622;42.724;23.250;2023-03-23T12:02:16;7.00;;;6.33;;
15049;SDS011;7622;42.724;23.250;2023-03-23T12:04:56;8.03;;;7.30;;
15049;SDS011;7622;42.724;23.250;2023-03-23T12:07:40;8.07;;;7.37;;
15049;SDS011;7622;42.724;23.250;2023-03-23T12:10:22;9.47;;;7.80;;
15049;SDS011;7622;42.724;23.250;2023-03-23T12:12:56;7.13;;;6.53;;
15049;SDS011;7622;42.724;23.250;2023-03-23T12:15:33;7.07;;;6.47;;
15049;SDS011;7622;42.724;23.250;2023-03-23T12:18:06;6.93;;;6.33;;
15049;SDS011;7622;42.724;23.250;2023-03-23T12:20:45;6.80;;;6.23;;
15049;SDS011;7622;42.724;23.250;2023-03-23T12:23:24;6.77;;;6.27;;
15049;SDS011;7622;42.724;23.250;2023-03-23T12:26:16;8.60;;;6.63;;
15049;SDS011;7622;42.724;23.250;2023-03-23T12:31:40;6.27;;;5.67;;
15049;SDS011;7622;42.724;23.250;2023-03-23T12:34:18;6.40;;;5.87;;
15049;SDS011;7622;42.724;23.250;2023-03-23T12:36:58;7.07;;;5.97;;
15049;SDS011;7622;42.724;23.250;2023-03-23T12:42:29;6.83;;;6.10;;
15049;SDS011;7622;42.724;23.250;2023-03-23T12:45:02;6.50;;;5.97;;
15049;SDS011;7622;42.724;23.250;2023-03-23T12:47:35;6.83;;;5.70;;
15049;SDS011;7622;42.724;23.250;2023-03-23T12:50:09;6.63;;;6.10;;
15049;SDS011;7622;42.724;23.250;2023-03-23T12:52:45;6.20;;;5.60;;
15049;SDS011;7622;42.724;23.250;2023-03-23T12:55:19;6.27;;;5.77;;
15049;SDS011;7622;42.724;23.250;2023-03-23T12:57:50;6.03;;;5.63;;
15049;SDS011;7622;42.724;23.250;2023-03-23T13:00:24;6.10;;;5.60;;
15049;SDS011;7622;42.724;23.250;2023-03-23T13:02:56;7.03;;;5.23;;
15049;SDS011;7622;42.724;23.250;2023-03-23T13:05:30;6.03;;;5.60;;
15049;SDS011;7622;42.724;23.250;2023-03-23T13:08:05;5.70;;;5.20;;
15049;SDS011;7622;42.724;23.250;2023-03-23T13:10:37;5.10;;;4.70;;
15049;SDS011;7622;42.724;23.250;2023-03-23T13:13:09;5.40;;;4.90;;
15049;SDS011;7622;42.724;23.250;2023-03-23T13:15:44;6.47;;;5.13;;
15049;SDS011;7622;42.724;23.250;2023-03-23T13:18:18;5.33;;;4.93;;
15049;SDS011;7622;42.724;23.250;2023-03-23T13:21:06;5.83;;;5.33;;
15049;SDS011;7622;42.724;23.250;2023-03-23T13:23:40;5.97;;;5.43;;
15049;SDS011;7622;42.724;23.250;2023-03-23T13:26:11;5.60;;;5.20;;
15049;SDS011;7622;42.724;23.250;2023-03-23T13:28:51;6.40;;;5.80;;
15049;SDS011;7622;42.724;23.250;2023-03-23T13:31:24;6.50;;;5.57;;
15049;SDS011;7622;42.724;23.250;2023-03-23T13:33:58;5.67;;;5.27;;
15049;SDS011;7622;42.724;23.250;2023-03-23T13:36:29;6.90;;;6.30;;
15049;SDS011;7622;42.724;23.250;2023-03-23T13:38:58;6.10;;;5.60;;
15049;SDS011;7622;42.724;23.250;2023-03-23T13:41:26;8.83;;;5.90;;
15049;SDS011;7622;42.724;23.250;2023-03-23T13:44:07;5.23;;;4.70;;
15049;SDS011;7622;42.724;23.250;2023-03-23T13:46:53;5.80;;;5.30;;
15049;SDS011;7622;42.724;23.250;2023-03-23T13:49:21;5.77;;;5.10;;
15049;SDS011;7622;42.724;23.250;2023-03-23T13:51:59;5.70;;;5.30;;
15049;SDS011;7622;42.724;23.250;2023-03-23T13:54:48;5.80;;;5.40;;
15049;SDS011;7622;42.724;23.250;2023-03-23T13:57:36;5.23;;;4.73;;
15049;SDS011;7622;42.724;23.250;2023-03-23T14:00:24;5.73;;;5.20;;
15049;SDS011;7622;42.724;23.250;2023-03-23T14:03:09;6.73;;;5.27;;
15049;SDS011;7622;42.724;23.250;2023-03-23T14:05:39;6.07;;;5.33;;
15049;SDS011;7622;42.724;23.250;2023-03-23T14:08:14;5.87;;;5.30;;
15049;SDS011;7622;42.724;23.250;2023-03-23T14:10:50;5.67;;;5.17;;
15049;SDS011;7622;42.724;23.250;2023-03-23T14:13:21;5.70;;;5.20;;
15049;SDS011;7622;42.724;23.250;2023-03-23T14:15:56;6.07;;;5.23;;
15049;SDS011;7622;42.724;23.250;2023-03-23T14:18:26;6.40;;;5.07;;
15049;SDS011;7622;42.724;23.250;2023-03-23T14:20:57;4.40;;;4.07;;
15049;SDS011;7622;42.724;23.250;2023-03-23T14:23:26;5.63;;;4.90;;
15049;SDS011;7622;42.724;23.250;2023-03-23T14:25:55;6.80;;;5.27;;
15049;SDS011;7622;42.724;23.250;2023-03-23T14:28:30;5.90;;;5.40;;
15049;SDS011;7622;42.724;23.250;2023-03-23T14:30:59;6.63;;;4.87;;
15049;SDS011;7622;42.724;23.250;2023-03-23T14:33:26;6.00;;;4.93;;
15049;SDS011;7622;42.724;23.250;2023-03-23T14:35:53;6.40;;;5.63;;
15049;SDS011;7622;42.724;23.250;2023-03-23T14:38:23;5.57;;;5.10;;
15049;SDS011;7622;42.724;23.250;2023-03-23T14:40:59;6.13;;;5.50;;
15049;SDS011;7622;42.724;23.250;2023-03-23T14:43:27;5.70;;;5.20;;
15049;SDS011;7622;42.724;23.250;2023-03-23T14:45:56;8.17;;;4.70;;
15049;SDS011;7622;42.724;23.250;2023-03-23T14:48:27;5.60;;;5.13;;
15049;SDS011;7622;42.724;23.250;2023-03-23T14:50:56;5.50;;;5.00;;
15049;SDS011;7622;42.724;23.250;2023-03-23T14:53:25;5.90;;;5.40;;
15049;SDS011;7622;42.724;23.250;2023-03-23T14:55:58;6.10;;;5.50;;
15049;SDS011;7622;42.724;23.250;2023-03-23T14:58:27;8.87;;;5.30;;
15049;SDS011;7622;42.724;23.250;2023-03-23T15:00:55;6.10;;;5.60;;
15049;SDS011;7622;42.724;23.250;2023-03-23T15:03:26;6.10;;;5.07;;
15049;SDS011;7622;42.724;23.250;2023-03-23T15:05:58;7.37;;;6.67;;